createdAt,value
2018-11-04T00:00:41.301Z,96.70
2018-11-04T00:03:16.539Z,96.90
2018-11-04T00:05:52.455Z,97.00
2018-11-04T00:08:28.697Z,97.40
2018-11-04T00:11:04.839Z,97.40
2018-11-04T00:13:41.488Z,97.00
2018-11-04T00:16:17.561Z,97.30
2018-11-04T00:18:53.364Z,97.10
2018-11-04T00:21:29.640Z,96.90
2018-11-04T00:24:06.226Z,97.30
2018-11-04T00:26:41.277Z,97.40
2018-11-04T00:29:16.160Z,97.50
2018-11-04T00:31:52.186Z,97.60
2018-11-04T00:34:28.885Z,97.50
2018-11-04T00:37:05.675Z,97.60
2018-11-04T00:39:41.623Z,97.40
2018-11-04T00:42:17.484Z,97.50
2018-11-04T00:44:53.917Z,97.20
2018-11-04T00:47:30.518Z,97.50
2018-11-04T00:50:08.567Z,97.20
2018-11-04T00:52:46.513Z,97.40
2018-11-04T00:55:23.125Z,97.50
2018-11-04T00:57:59.484Z,97.20
2018-11-04T01:00:35.964Z,97.40
2018-11-04T01:03:11.887Z,97.60
2018-11-04T01:05:47.062Z,97.60
2018-11-04T01:08:23.186Z,97.40
2018-11-04T01:10:58.302Z,97.60
2018-11-04T01:13:34.033Z,97.40
2018-11-04T01:16:09.970Z,97.40
2018-11-04T01:18:45.775Z,97.50
2018-11-04T01:21:21.592Z,97.50
2018-11-04T01:23:57.736Z,97.50
2018-11-04T01:26:34.595Z,97.40
2018-11-04T01:29:13.278Z,97.60
2018-11-04T01:31:49.005Z,97.50
2018-11-04T01:34:23.972Z,97.50
2018-11-04T01:36:59.708Z,97.60
2018-11-04T01:39:35.673Z,97.80
2018-11-04T01:42:11.496Z,97.90
2018-11-04T01:44:47.336Z,97.70
2018-11-04T01:47:22.921Z,97.60
2018-11-04T01:49:58.670Z,97.40
2018-11-04T01:52:34.470Z,97.50
2018-11-04T01:55:11.068Z,97.40
2018-11-04T01:57:46.932Z,97.50
2018-11-04T02:00:21.819Z,97.60
2018-11-04T02:02:57.885Z,97.50
2018-11-04T02:05:33.693Z,97.40
2018-11-04T02:08:09.456Z,97.60
2018-11-04T02:10:45.420Z,97.40
2018-11-04T02:13:21.145Z,97.20
2018-11-04T02:15:56.975Z,97.10
2018-11-04T02:18:32.991Z,97.10
2018-11-04T02:21:08.687Z,97.20
2018-11-04T02:23:44.541Z,97.30
2018-11-04T02:26:20.284Z,97.10
2018-11-04T02:28:56.232Z,97.10
2018-11-04T02:31:31.924Z,97.20
2018-11-04T02:34:08.177Z,97.10
2018-11-04T02:36:44.103Z,97.10
2018-11-04T02:39:19.540Z,97.10
2018-11-04T02:43:25.852Z,97.10
2018-11-04T02:46:02.429Z,97.20
2018-11-04T02:48:38.254Z,97.20
2018-11-04T02:51:14.126Z,97.20
2018-11-04T02:53:50.059Z,97.30
2018-11-04T02:56:26.594Z,97.20
2018-11-04T02:59:03.016Z,97.40
2018-11-04T03:01:38.121Z,97.50
2018-11-04T03:04:13.759Z,97.50
2018-11-04T03:06:48.774Z,97.40
2018-11-04T03:09:25.854Z,97.10
2018-11-04T03:12:02.549Z,97.10
2018-11-04T03:14:39.794Z,97.20
2018-11-04T03:17:15.971Z,97.10
2018-11-04T03:19:52.742Z,97.20
2018-11-04T03:22:28.714Z,97.10
2018-11-04T03:25:05.153Z,96.90
2018-11-04T03:27:41.362Z,96.80
2018-11-04T03:30:17.583Z,96.70
2018-11-04T03:32:53.286Z,96.80
2018-11-04T03:35:29.494Z,96.70
2018-11-04T03:38:06.563Z,96.80
2018-11-04T03:40:43.332Z,96.80
2018-11-04T03:43:19.447Z,96.60
2018-11-04T03:45:55.355Z,96.60
2018-11-04T03:48:31.246Z,96.70
2018-11-04T03:51:06.892Z,96.60
2018-11-04T03:53:41.888Z,96.60
2018-11-04T03:56:17.730Z,96.50
2018-11-04T03:58:53.806Z,96.60
2018-11-04T04:01:29.689Z,96.60
2018-11-04T04:04:05.759Z,96.60
2018-11-04T04:06:41.530Z,96.60
2018-11-04T04:09:17.702Z,96.60
2018-11-04T04:11:54.293Z,96.60
2018-11-04T04:14:29.471Z,96.60
2018-11-04T04:17:04.629Z,96.60
2018-11-04T04:19:39.714Z,96.60
2018-11-04T04:22:15.827Z,96.70
2018-11-04T04:24:50.818Z,96.60
2018-11-04T04:27:28.422Z,96.60
2018-11-04T04:30:06.097Z,96.60
2018-11-04T04:32:41.820Z,96.60
2018-11-04T04:35:18.918Z,96.40
2018-11-04T04:37:55.001Z,96.50
2018-11-04T04:40:30.940Z,96.50
2018-11-04T04:43:08.224Z,96.40
2018-11-04T04:45:44.817Z,96.50
2018-11-04T04:48:20.865Z,96.50
2018-11-04T04:50:56.775Z,96.50
2018-11-04T04:53:32.612Z,96.50
2018-11-04T04:56:08.371Z,96.60
2018-11-04T04:58:44.286Z,96.70
2018-11-04T05:01:20.106Z,96.80
2018-11-04T05:03:56.209Z,96.70
2018-11-04T05:06:32.264Z,96.70
2018-11-04T05:09:09.018Z,96.70
2018-11-04T05:11:44.769Z,96.70
2018-11-04T05:14:20.800Z,96.80
2018-11-04T05:16:57.290Z,96.70
2018-11-04T05:19:32.839Z,96.80
2018-11-04T05:22:09.267Z,96.50
2018-11-04T05:24:45.271Z,96.70
2018-11-04T05:27:20.580Z,96.70
2018-11-04T05:29:55.614Z,96.60
2018-11-04T05:32:31.528Z,96.70
2018-11-04T05:35:08.824Z,96.70
2018-11-04T05:37:45.207Z,96.60
2018-11-04T05:40:21.627Z,96.70
2018-11-04T05:42:57.935Z,96.70
2018-11-04T05:45:33.828Z,96.70
2018-11-04T05:48:09.806Z,96.60
2018-11-04T05:50:46.101Z,96.60
2018-11-04T05:53:22.767Z,96.70
2018-11-04T05:55:58.770Z,97.10
2018-11-04T05:58:33.963Z,96.70
2018-11-04T06:01:09.964Z,96.80
2018-11-04T06:03:45.121Z,96.70
2018-11-04T06:06:21.786Z,96.60
2018-11-04T06:08:57.620Z,96.60
2018-11-04T06:11:33.542Z,96.70
2018-11-04T06:14:10.377Z,96.60
2018-11-04T06:16:46.241Z,96.70
2018-11-04T06:19:22.395Z,96.70
2018-11-04T06:21:59.126Z,96.80
2018-11-04T06:24:35.025Z,96.80
2018-11-04T06:27:11.052Z,96.70
2018-11-04T06:29:47.746Z,96.70
2018-11-04T06:32:23.837Z,96.90
2018-11-04T06:35:00.092Z,96.90
2018-11-04T06:37:36.148Z,96.80
2018-11-04T06:40:12.450Z,96.80
2018-11-04T06:42:48.108Z,96.80
2018-11-04T06:45:23.814Z,96.60
2018-11-04T06:47:59.629Z,96.90
2018-11-04T06:50:35.685Z,96.90
2018-11-04T06:53:11.908Z,96.80
2018-11-04T06:55:48.286Z,97.00
2018-11-04T06:58:24.013Z,96.90
2018-11-04T07:00:59.825Z,97.10
2018-11-04T07:03:34.856Z,97.10
2018-11-04T07:06:10.019Z,96.90
2018-11-04T07:08:46.216Z,96.80
2018-11-04T07:11:22.433Z,97.00
2018-11-04T07:13:58.425Z,97.00
2018-11-04T07:16:34.242Z,97.10
2018-11-04T07:19:14.403Z,96.90
2018-11-04T07:21:51.044Z,96.80
2018-11-04T07:24:27.003Z,97.00
2018-11-04T07:27:02.793Z,96.80
2018-11-04T07:29:37.813Z,96.90
2018-11-04T07:32:14.151Z,97.10
2018-11-04T07:34:50.647Z,97.00
2018-11-04T07:37:27.060Z,97.00
2018-11-04T07:40:03.409Z,96.80
2018-11-04T07:42:39.599Z,96.70
2018-11-04T07:45:15.456Z,96.60
2018-11-04T07:47:51.273Z,96.60
2018-11-04T07:50:27.016Z,96.60
2018-11-04T07:53:02.907Z,96.70
2018-11-04T07:55:40.281Z,96.70
2018-11-04T07:58:16.635Z,96.40
2018-11-04T08:00:52.739Z,96.60
2018-11-04T08:03:28.615Z,96.40
2018-11-04T08:06:06.558Z,96.40
2018-11-04T08:08:42.502Z,96.40
2018-11-04T08:11:19.116Z,96.20
2018-11-04T08:13:55.057Z,96.30
2018-11-04T08:16:30.949Z,96.30
2018-11-04T08:19:06.734Z,96.30
2018-11-04T08:21:42.499Z,96.30
2018-11-04T08:24:18.472Z,96.30
2018-11-04T08:26:53.519Z,96.20
2018-11-04T08:29:30.381Z,96.30
2018-11-04T08:32:06.166Z,96.20
2018-11-04T08:34:42.116Z,96.20
2018-11-04T08:37:17.990Z,96.20
2018-11-04T08:39:54.056Z,96.30
2018-11-04T08:42:30.932Z,96.20
2018-11-04T08:45:08.610Z,96.20
2018-11-04T08:47:45.185Z,96.20
2018-11-04T08:50:21.239Z,96.20
2018-11-04T08:52:57.078Z,96.20
2018-11-04T08:55:32.758Z,96.10
2018-11-04T08:58:08.607Z,96.10
2018-11-04T09:00:44.997Z,96.10
2018-11-04T09:03:24.487Z,96.20
2018-11-04T09:06:00.311Z,96.20
2018-11-04T09:08:36.024Z,96.10
2018-11-04T09:11:11.962Z,95.90
2018-11-04T09:13:47.290Z,96.20
2018-11-04T09:16:23.396Z,95.90
2018-11-04T09:18:59.188Z,95.90
2018-11-04T09:21:35.344Z,95.90
2018-11-04T09:24:11.153Z,96.00
2018-11-04T09:26:48.166Z,95.80
2018-11-04T09:29:24.109Z,95.90
2018-11-04T09:31:59.862Z,95.90
2018-11-04T09:34:35.516Z,95.80
2018-11-04T09:37:11.158Z,95.80
2018-11-04T09:39:47.272Z,95.70
2018-11-04T09:42:23.798Z,95.80
2018-11-04T09:44:59.633Z,95.80
2018-11-04T09:47:35.962Z,95.80
2018-11-04T09:50:12.046Z,95.80
2018-11-04T09:52:48.202Z,95.70
2018-11-04T09:55:24.042Z,95.70
2018-11-04T09:57:59.681Z,95.50
2018-11-04T10:00:35.313Z,95.60
2018-11-04T10:03:11.383Z,95.60
2018-11-04T10:05:48.111Z,95.50
2018-11-04T10:08:24.080Z,95.50
2018-11-04T10:10:59.903Z,95.20
2018-11-04T10:13:35.766Z,95.30
2018-11-04T10:16:12.504Z,95.20
2018-11-04T10:18:48.279Z,95.30
2018-11-04T10:21:24.065Z,95.20
2018-11-04T10:24:00.235Z,94.90
2018-11-04T10:26:35.340Z,94.90
2018-11-04T10:29:11.392Z,95.00
2018-11-04T10:31:47.056Z,95.00
2018-11-04T10:34:22.100Z,95.10
2018-11-04T10:37:00.163Z,95.00
2018-11-04T10:39:36.052Z,95.20
2018-11-04T10:42:11.892Z,95.00
2018-11-04T10:44:47.034Z,94.90
2018-11-04T10:47:21.953Z,94.60
2018-11-04T10:49:57.950Z,94.60
2018-11-04T10:52:33.656Z,94.90
2018-11-04T10:55:10.431Z,94.30
2018-11-04T10:57:46.640Z,94.50
2018-11-04T11:00:28.002Z,94.40
2018-11-04T11:03:06.611Z,94.40
2018-11-04T11:07:07.248Z,94.10
2018-11-04T11:09:45.657Z,94.50
2018-11-04T11:12:20.597Z,94.40
2018-11-04T11:14:57.602Z,94.60
2018-11-04T11:17:33.338Z,94.20
2018-11-04T11:20:10.194Z,94.20
2018-11-04T11:22:46.389Z,94.40
2018-11-04T11:25:23.344Z,94.40
2018-11-04T11:27:59.258Z,94.30
2018-11-04T11:30:34.256Z,94.20
2018-11-04T11:33:10.098Z,94.30
2018-11-04T11:35:46.145Z,94.30
2018-11-04T11:38:21.126Z,93.90
2018-11-04T11:40:56.954Z,94.20
2018-11-04T11:43:32.727Z,93.90
2018-11-04T11:46:08.345Z,94.00
2018-11-04T11:48:44.218Z,93.90
2018-11-04T11:51:19.330Z,94.20
2018-11-04T11:53:54.473Z,93.80
2018-11-04T11:56:31.681Z,93.60
2018-11-04T11:59:08.412Z,93.70
2018-11-04T12:01:44.292Z,93.50
2018-11-04T12:04:20.075Z,93.80
2018-11-04T12:06:55.939Z,94.00
2018-11-04T12:09:33.401Z,93.60
2018-11-04T12:12:10.099Z,93.80
2018-11-04T12:16:17.268Z,93.70
2018-11-04T12:18:53.431Z,93.50
2018-11-04T12:21:29.884Z,93.50
2018-11-04T12:24:05.952Z,93.70
2018-11-04T12:26:42.836Z,93.90
2018-11-04T12:29:18.723Z,93.60
2018-11-04T12:31:54.698Z,93.60
2018-11-04T12:34:30.497Z,93.60
2018-11-04T12:37:06.333Z,93.50
2018-11-04T12:39:42.237Z,93.10
2018-11-04T12:42:17.163Z,93.40
2018-11-04T12:44:53.208Z,93.30
2018-11-04T12:47:29.156Z,93.50
2018-11-04T12:50:06.266Z,93.60
2018-11-04T12:52:42.974Z,93.20
2018-11-04T12:55:20.862Z,93.10
2018-11-04T12:57:56.756Z,93.20
2018-11-04T13:00:32.757Z,93.10
2018-11-04T13:03:08.589Z,93.10
2018-11-04T13:05:44.338Z,92.70
2018-11-04T13:08:20.577Z,92.60
2018-11-04T13:10:57.205Z,92.90
2018-11-04T13:13:33.100Z,92.60
2018-11-04T13:16:09.266Z,93.10
2018-11-04T13:18:44.846Z,92.60
2018-11-04T13:21:21.436Z,92.70
2018-11-04T13:23:57.200Z,93.10
2018-11-04T13:26:34.391Z,92.90
2018-11-04T13:29:10.673Z,92.70
2018-11-04T13:31:45.802Z,92.40
2018-11-04T13:34:21.674Z,92.40
2018-11-04T13:36:59.675Z,93.20
2018-11-04T13:39:36.777Z,93.10
2018-11-04T13:42:13.437Z,92.20
2018-11-04T13:44:48.743Z,93.10
2018-11-04T13:47:25.726Z,93.00
2018-11-04T13:50:01.686Z,92.80
2018-11-04T13:52:37.821Z,92.30
2018-11-04T13:55:14.380Z,92.70
2018-11-04T13:57:50.421Z,92.70
2018-11-04T14:00:25.909Z,92.90
2018-11-04T14:03:01.909Z,93.10
2018-11-04T14:05:37.717Z,92.70
2018-11-04T14:08:13.514Z,92.80
2018-11-04T14:10:48.437Z,92.90
2018-11-04T14:13:24.348Z,93.00
2018-11-04T14:16:00.091Z,93.00
2018-11-04T14:18:36.503Z,92.80
2018-11-04T14:21:12.868Z,92.50
2018-11-04T14:23:48.957Z,92.90
2018-11-04T14:26:24.737Z,92.40
2018-11-04T14:29:00.606Z,92.90
2018-11-04T14:31:36.602Z,92.90
2018-11-04T14:34:12.337Z,92.40
2018-11-04T14:36:48.090Z,93.00
2018-11-04T14:39:24.201Z,93.10
2018-11-04T14:41:59.983Z,93.00
2018-11-04T14:44:35.078Z,93.10
2018-11-04T14:47:11.813Z,93.10
2018-11-04T14:49:48.691Z,93.20
2018-11-04T14:52:24.392Z,93.10
2018-11-04T14:54:59.369Z,93.20
2018-11-04T14:57:35.785Z,93.20
2018-11-04T15:00:14.639Z,93.10
2018-11-04T15:02:50.753Z,93.40
2018-11-04T15:05:27.538Z,93.30
2018-11-04T15:08:03.504Z,93.40
2018-11-04T15:10:38.537Z,93.40
2018-11-04T15:13:14.578Z,93.60
2018-11-04T15:15:51.120Z,93.70
2018-11-04T15:18:26.600Z,93.80
2018-11-04T15:21:03.261Z,94.00
2018-11-04T15:23:39.131Z,94.00
2018-11-04T15:26:14.868Z,94.10
2018-11-04T15:28:50.681Z,94.20
2018-11-04T15:31:25.573Z,94.40
2018-11-04T15:34:01.457Z,94.50
2018-11-04T15:36:37.342Z,94.50
2018-11-04T15:39:13.537Z,94.60
2018-11-04T15:41:50.013Z,94.80
2018-11-04T15:44:25.833Z,94.80
2018-11-04T15:47:01.906Z,94.90
2018-11-04T15:49:37.616Z,95.00
2018-11-04T15:52:13.632Z,95.30
2018-11-04T15:54:49.443Z,95.10
2018-11-04T15:57:24.488Z,95.30
2018-11-04T16:00:00.551Z,95.30
2018-11-04T16:02:37.190Z,95.50
2018-11-04T16:05:13.008Z,95.40
2018-11-04T16:07:48.888Z,95.50
2018-11-04T16:10:23.956Z,95.50
2018-11-04T16:12:59.779Z,95.60
2018-11-04T16:15:35.533Z,96.00
2018-11-04T16:18:11.619Z,95.80
2018-11-04T16:20:47.194Z,96.10
2018-11-04T16:23:22.910Z,95.90
2018-11-04T16:25:58.761Z,96.10
2018-11-04T16:28:35.010Z,96.00
2018-11-04T16:31:11.975Z,96.20
2018-11-04T16:33:47.819Z,96.10
2018-11-04T16:36:23.818Z,96.30
2018-11-04T16:39:00.548Z,96.40
2018-11-04T16:41:36.449Z,96.30
2018-11-04T16:44:12.506Z,96.30
2018-11-04T16:46:48.160Z,96.30
2018-11-04T16:49:24.230Z,96.20
2018-11-04T16:52:01.084Z,96.20
2018-11-04T16:54:36.521Z,96.30
2018-11-04T16:57:12.647Z,96.40
2018-11-04T16:59:48.465Z,96.30
2018-11-04T17:02:24.388Z,96.30
2018-11-04T17:04:59.501Z,96.50
2018-11-04T17:07:35.253Z,96.90
2018-11-04T17:10:11.149Z,96.90
2018-11-04T17:12:46.928Z,96.80
2018-11-04T17:15:22.747Z,97.10
2018-11-04T17:17:58.615Z,96.80
2018-11-04T17:20:33.612Z,96.70
2018-11-04T17:23:09.660Z,96.80
2018-11-04T17:25:45.654Z,96.90
2018-11-04T17:28:21.898Z,96.80
2018-11-04T17:30:58.834Z,97.10
2018-11-04T17:33:34.871Z,97.00
2018-11-04T17:36:10.395Z,97.50
2018-11-04T17:38:46.362Z,97.50
2018-11-04T17:41:22.971Z,97.10
2018-11-04T17:43:58.922Z,97.00
2018-11-04T17:46:35.351Z,97.20
2018-11-04T17:49:12.034Z,97.50
2018-11-04T17:51:50.046Z,97.30
2018-11-04T17:54:25.782Z,97.40
2018-11-04T17:57:01.714Z,97.80
2018-11-04T17:59:37.928Z,97.30
2018-11-04T18:02:14.677Z,97.40
2018-11-04T18:04:50.623Z,97.30
2018-11-04T18:07:26.378Z,97.20
2018-11-04T18:10:02.530Z,97.40
2018-11-04T18:12:39.233Z,97.30
2018-11-04T18:15:14.934Z,97.30
2018-11-04T18:17:51.320Z,97.40
2018-11-04T18:20:27.298Z,97.80
2018-11-04T18:23:03.228Z,97.40
2018-11-04T18:25:39.347Z,97.50
2018-11-04T18:28:15.072Z,97.60
2018-11-04T18:30:50.960Z,97.30
2018-11-04T18:33:26.142Z,97.60
2018-11-04T18:36:01.504Z,97.90
2018-11-04T18:38:36.619Z,97.80
2018-11-04T18:41:11.940Z,97.50
2018-11-04T18:43:47.171Z,97.50
2018-11-04T18:46:22.732Z,98.10
2018-11-04T18:48:59.048Z,97.90
2018-11-04T18:51:34.777Z,97.70
2018-11-04T18:54:11.445Z,98.00
2018-11-04T18:56:47.441Z,97.80
2018-11-04T18:59:23.374Z,98.10
2018-11-04T19:01:59.766Z,98.00
2018-11-04T19:04:35.841Z,97.80
2018-11-04T19:07:11.520Z,97.80
2018-11-04T19:09:47.315Z,97.80
2018-11-04T19:12:23.731Z,97.80
2018-11-04T19:15:00.305Z,97.90
2018-11-04T19:17:36.535Z,97.80
2018-11-04T19:20:14.150Z,98.00
2018-11-04T19:22:50.265Z,97.90
2018-11-04T19:25:26.765Z,98.20
2018-11-04T19:28:02.593Z,98.20
2018-11-04T19:30:37.781Z,98.20
2018-11-04T19:33:13.516Z,98.00
2018-11-04T19:35:49.261Z,98.30
2018-11-04T19:38:24.890Z,98.30
2018-11-04T19:41:02.289Z,98.50
2018-11-04T19:43:38.541Z,98.20
2018-11-04T19:46:14.701Z,98.60
2018-11-04T19:48:50.527Z,98.20
2018-11-04T19:51:26.413Z,98.50
2018-11-04T19:54:02.152Z,98.10
2018-11-04T19:56:39.275Z,98.30
2018-11-04T19:59:15.119Z,98.30
2018-11-04T20:01:52.841Z,98.40
2018-11-04T20:04:27.957Z,98.40
2018-11-04T20:07:03.696Z,98.70
2018-11-04T20:09:38.761Z,98.50
2018-11-04T20:12:19.849Z,98.30
2018-11-04T20:14:56.429Z,98.40
2018-11-04T20:17:32.353Z,98.50
2018-11-04T20:20:11.438Z,98.40
2018-11-04T20:22:47.160Z,98.50
2018-11-04T20:25:27.847Z,98.50
2018-11-04T20:28:04.200Z,98.80
2018-11-04T20:30:40.002Z,98.50
2018-11-04T20:33:16.473Z,98.50
2018-11-04T20:35:51.823Z,98.50
2018-11-04T20:38:32.213Z,98.50
2018-11-04T20:41:14.389Z,98.30
2018-11-04T20:43:50.588Z,98.50
2018-11-04T20:46:26.410Z,98.60
2018-11-04T20:49:07.624Z,98.80
2018-11-04T20:51:43.913Z,98.70
2018-11-04T20:54:19.648Z,98.60
2018-11-04T20:57:01.489Z,98.80
2018-11-04T20:59:37.938Z,98.60
2018-11-04T21:02:13.211Z,98.70
2018-11-04T21:04:48.038Z,98.60
2018-11-04T21:07:23.269Z,99.10
2018-11-04T21:10:00.942Z,98.80
2018-11-04T21:12:37.788Z,98.50
2018-11-04T21:15:12.833Z,98.60
2018-11-04T21:17:48.855Z,98.40
2018-11-04T21:20:24.815Z,98.80
2018-11-04T21:23:00.729Z,99.00
2018-11-04T21:25:36.728Z,99.00
2018-11-04T21:28:12.991Z,98.90
2018-11-04T21:30:49.165Z,98.90
2018-11-04T21:33:24.178Z,98.90
2018-11-04T21:35:59.123Z,99.10
2018-11-04T21:38:34.835Z,99.10
2018-11-04T21:41:11.925Z,98.80
2018-11-04T21:43:48.287Z,99.20
2018-11-04T21:46:24.684Z,98.90
2018-11-04T21:48:59.914Z,99.10
2018-11-04T21:51:37.849Z,99.00
2018-11-04T21:54:14.344Z,99.00
2018-11-04T21:56:50.530Z,98.90
2018-11-04T21:59:27.318Z,98.80
2018-11-04T22:02:02.289Z,98.70
2018-11-04T22:04:38.191Z,98.70
2018-11-04T22:07:14.198Z,98.60
2018-11-04T22:09:49.245Z,98.60
2018-11-04T22:12:25.904Z,98.50
2018-11-04T22:15:01.940Z,98.70
2018-11-04T22:17:38.825Z,98.40
2018-11-04T22:20:14.284Z,99.30
2018-11-04T22:22:49.638Z,98.80
2018-11-04T22:25:25.313Z,99.20
2018-11-04T22:28:01.230Z,99.00
2018-11-04T22:30:36.307Z,98.90
2018-11-04T22:33:12.983Z,98.80
2018-11-04T22:35:49.134Z,98.70
2018-11-04T22:38:24.434Z,98.60
2018-11-04T22:41:00.207Z,98.60
2018-11-04T22:43:37.309Z,98.50
2018-11-04T22:46:13.139Z,98.60
2018-11-04T22:48:48.238Z,98.40
2018-11-04T22:51:24.152Z,98.50
2018-11-04T22:53:59.050Z,98.40
2018-11-04T22:56:35.160Z,98.40
2018-11-04T22:59:11.141Z,98.50
2018-11-04T23:01:46.957Z,98.30
2018-11-04T23:05:25.853Z,98.90
2018-11-04T23:08:02.378Z,99.00
2018-11-04T23:10:38.340Z,98.70
2018-11-04T23:13:15.324Z,99.00
2018-11-04T23:15:50.401Z,98.90
2018-11-04T23:18:25.875Z,99.10
2018-11-04T23:21:01.906Z,99.30
2018-11-04T23:23:37.283Z,99.00
2018-11-04T23:26:12.438Z,99.40
2018-11-04T23:28:47.951Z,98.80
2018-11-04T23:31:26.245Z,98.80
2018-11-04T23:34:02.352Z,99.10
2018-11-04T23:36:37.434Z,99.50
2018-11-04T23:39:14.237Z,99.30
2018-11-04T23:41:50.044Z,99.20
2018-11-04T23:44:25.645Z,99.20
2018-11-04T23:47:01.116Z,98.90
2018-11-04T23:49:37.567Z,99.00
2018-11-04T23:52:13.827Z,98.90
2018-11-04T23:54:49.678Z,99.40
2018-11-04T23:57:25.490Z,99.10
